Mijn Webcam Meer informatie Mijn Webcam


webcam facing north-east Meer informatie webcam facing north-east


Regen radar Meer informatie rain snow radar


Bezoek onze andere website:

Template documentation
and downloads

And another site


CBI



METAR rapporten vliegvelden

   
EHGG - Groningen/Eelde
Gewijzigd: 18-10-2017 10:55
Gedeeltelijk bewolkt  
Gedeeltelijk bewolkt  
   Wind: varieert 1 m/s
Wind: varieert 1 m/s
Temperatuur: 11°C
Dauwpunt: 11°C
Vochtigheid: 100%
Barometer: 1015 hPa
Bewolking: Gedeeltelijk bewolkt
Zicht: 9 km
Bewolking: Licht bewolkt 1158,2 m,
Gedeeltelijk bewolkt 1280,2 m
EHGG 180855Z AUTO VRB02KT 9000 FEW038 SCT042 11/11 Q1015 NOSIG
EHMA - Schiermonnikoog
Gewijzigd: 18-10-2017 10:55
Grotendeels bewolkt  
Grotendeels bewolkt  
   Wind: Zuiden 2,1 m/s
Wind: Zuiden 2,1 m/s
Temperatuur: 13°C
Dauwpunt: 11°C
Vochtigheid: 88%
Barometer: 1015 hPa
Bewolking: Grotendeels bewolkt
Zicht: More then 10 km
Bewolking: Licht bewolkt 1127,8 m,
Grotendeels bewolkt 1341,1 m
EHMA 180855Z AUTO 17004KT 100V210 9999 FEW037 BKN044 13/11 Q1015
EHMG - Terschelling
Gewijzigd: 18-10-2017 10:55
Grotendeels bewolkt  
Grotendeels bewolkt  
   Wind: ONO 3,1 m/s
Wind: ONO 3,1 m/s
Temperatuur: 15°C
Dauwpunt: 9°C
Vochtigheid: 68%
Barometer: 1014 hPa
Bewolking: Grotendeels bewolkt
Zicht: More then 10 km
Bewolking: Grotendeels bewolkt 1097,3 m,
Grotendeels bewolkt 1219,2 m,
Grotendeels bewolkt 1432,6 m
EHMG 180855Z AUTO 06006KT 9999 BKN036 BKN040 BKN047 15/09 Q1014
EHVL - Vlieland
Gewijzigd: 18-10-2017 10:55
Bewolking  
Bewolking  
   Wind: Oosten 2,1 m/s
Wind: Oosten 2,1 m/s
Temperatuur: 14°C
Dauwpunt: 12°C
Vochtigheid: 88%
Barometer: 1014 hPa
Bewolking: Bewolking
Zicht: More then 10 km
Bewolking: Bewolking 1005,8 m
EHVL 180855Z AUTO 10004KT 9999 OVC033 14/12 Q1014 BLU
ETWM - Meppen, Germany
Gewijzigd: 18-10-2017 11:20
Gedeeltelijk bewolkt  
Gedeeltelijk bewolkt  
   Wind: NO 2,1 m/s
Wind: NO 2,1 m/s
Temperatuur: 14°C
Dauwpunt: 10°C
Vochtigheid: 77%
Barometer: 1015 hPa
Bewolking: Gedeeltelijk bewolkt
Zicht: More then 10 km
Bewolking: Licht bewolkt 6096 m,
Gedeeltelijk bewolkt 7924,8 m
ETWM 180920Z 05004KT 9999 FEW200 SCT260 14/10 Q1015 BLU+
 

Script ontwikkeld door  Saratoga-weather.org Aangepast voor de template door  Weerstation Leuven

U vindt ons ook hier:

Het Weer Aktueel

UK Metoffice

European Weather Network

WeatherCloud

Weather Underground

Benelux Weer Netwerk

AWEKAS

WeatherlinkIP

HAMweather, WeatherForYou, PWS Weather

Apparatuur in gebruik:

Weerstation
Davis VP2 Plus

Weerprogramma
Cumulus

Weercomputer
ASUS Eee Box B202

Webleverancier
Antagonist

Davis VP2 Plus

Cumulus

ASUS Eee Box B202

Antagonist